createdAt,value
2023-03-02T00:04:24.503Z,8.68
2023-03-02T00:06:53.193Z,9.00
2023-03-02T00:09:21.930Z,8.98
2023-03-02T00:11:50.928Z,10.15
2023-03-02T00:14:18.689Z,9.38
2023-03-02T00:16:46.241Z,9.63
2023-03-02T00:19:14.007Z,9.68
2023-03-02T00:21:41.632Z,9.68
2023-03-02T00:24:09.309Z,10.43
2023-03-02T00:26:37.472Z,10.82
2023-03-02T00:29:08.664Z,11.02
2023-03-02T00:31:36.240Z,12.27
2023-03-02T00:34:03.934Z,12.57
2023-03-02T00:36:31.489Z,12.77
2023-03-02T00:38:59.046Z,12.50
2023-03-02T00:41:26.771Z,13.13
2023-03-02T00:43:54.728Z,14.65
2023-03-02T00:46:28.749Z,14.10
2023-03-02T00:48:56.453Z,15.50
2023-03-02T00:51:25.219Z,15.57
2023-03-02T00:53:53.219Z,17.10
2023-03-02T00:56:21.542Z,16.17
2023-03-02T00:58:52.513Z,18.05
2023-03-02T01:01:20.150Z,19.50
2023-03-02T01:04:04.063Z,20.77
2023-03-02T01:06:32.497Z,20.10
2023-03-02T01:09:00.788Z,21.75
2023-03-02T01:11:30.000Z,22.98
2023-03-02T01:13:57.868Z,24.10
2023-03-02T01:16:25.459Z,23.75
2023-03-02T01:18:53.526Z,23.27
2023-03-02T01:21:29.904Z,25.88
2023-03-02T01:23:57.666Z,27.67
2023-03-02T01:26:25.181Z,26.75
2023-03-02T01:28:55.570Z,27.67
2023-03-02T01:31:24.223Z,26.83
2023-03-02T01:33:53.368Z,27.85
2023-03-02T01:36:22.415Z,28.90
2023-03-02T01:38:54.427Z,29.15
2023-03-02T01:41:22.663Z,32.05
2023-03-02T01:43:52.354Z,30.00
2023-03-02T01:46:24.879Z,31.92
2023-03-02T01:48:55.888Z,32.38
2023-03-02T01:51:44.818Z,30.50
2023-03-02T01:54:17.484Z,32.10
2023-03-02T01:56:46.468Z,31.27
2023-03-02T01:59:15.292Z,32.88
2023-03-02T02:01:45.271Z,32.35
2023-03-02T02:04:13.474Z,34.13
2023-03-02T02:06:43.868Z,33.75
2023-03-02T02:09:13.169Z,32.10
2023-03-02T02:11:43.782Z,32.50
2023-03-02T02:14:11.662Z,33.40
2023-03-02T02:16:46.252Z,32.85
2023-03-02T02:19:36.272Z,33.35
2023-03-02T02:22:03.934Z,31.55
2023-03-02T02:24:38.277Z,33.63
2023-03-02T02:27:06.174Z,33.10
2023-03-02T02:29:39.223Z,33.45
2023-03-02T02:32:16.297Z,32.30
2023-03-02T02:35:22.747Z,31.10
2023-03-02T02:37:53.593Z,33.67
2023-03-02T02:40:23.873Z,32.00
2023-03-02T02:42:53.496Z,32.13
2023-03-02T02:45:28.332Z,33.67
2023-03-02T02:47:56.899Z,31.83
2023-03-02T02:50:35.005Z,34.28
2023-03-02T02:53:12.974Z,34.30
2023-03-02T02:55:41.577Z,34.03
2023-03-02T02:58:26.068Z,31.40
2023-03-02T03:00:58.368Z,32.65
2023-03-02T03:03:32.123Z,33.47
2023-03-02T03:06:08.530Z,33.95
2023-03-02T03:08:57.652Z,33.30
2023-03-02T03:11:36.711Z,32.80
2023-03-02T03:14:07.818Z,33.40
2023-03-02T03:16:37.405Z,34.70
2023-03-02T03:19:24.893Z,31.45
2023-03-02T03:21:55.756Z,32.90
2023-03-02T03:24:25.466Z,33.35
2023-03-02T03:26:55.487Z,32.20
2023-03-02T03:29:24.597Z,32.17
2023-03-02T03:31:56.541Z,32.13
2023-03-02T03:34:26.757Z,31.83
2023-03-02T03:36:54.457Z,32.93
2023-03-02T03:39:23.699Z,31.60
2023-03-02T03:41:53.005Z,33.35
2023-03-02T03:44:21.269Z,32.17
2023-03-02T03:46:48.951Z,32.95
2023-03-02T03:49:17.536Z,33.42
2023-03-02T03:51:45.957Z,32.08
2023-03-02T03:54:13.434Z,32.90
2023-03-02T03:56:43.701Z,32.53
2023-03-02T03:59:13.968Z,32.40
2023-03-02T04:01:57.329Z,31.10
2023-03-02T04:04:33.061Z,33.13
2023-03-02T04:07:03.400Z,33.15
2023-03-02T04:09:34.152Z,32.30
2023-03-02T04:12:02.034Z,32.35
2023-03-02T04:14:29.996Z,30.65
2023-03-02T04:16:58.021Z,34.13
2023-03-02T04:19:26.721Z,32.47
2023-03-02T04:21:58.808Z,32.17
2023-03-02T04:24:27.448Z,32.22
2023-03-02T04:26:58.165Z,32.85
2023-03-02T04:29:26.914Z,33.08
2023-03-02T04:31:55.390Z,31.50
2023-03-02T04:34:25.638Z,31.98
2023-03-02T04:36:54.741Z,31.27
2023-03-02T04:39:25.967Z,31.27
2023-03-02T04:41:54.398Z,32.35
2023-03-02T04:44:22.580Z,32.25
2023-03-02T04:46:52.268Z,33.95
2023-03-02T04:49:21.337Z,33.17
2023-03-02T04:51:49.920Z,32.40
2023-03-02T04:54:22.656Z,31.15
2023-03-02T04:56:52.896Z,31.75
2023-03-02T04:59:24.230Z,31.98
2023-03-02T05:01:52.944Z,33.92
2023-03-02T05:04:21.414Z,33.75
2023-03-02T05:06:49.293Z,32.58
2023-03-02T05:09:24.937Z,33.70
2023-03-02T05:11:55.586Z,33.05
2023-03-02T05:14:24.813Z,31.63
2023-03-02T05:16:53.574Z,32.90
2023-03-02T05:19:22.038Z,32.80
2023-03-02T05:21:53.544Z,33.13
2023-03-02T05:24:24.200Z,33.47
2023-03-02T05:26:52.409Z,32.67
2023-03-02T05:29:22.730Z,31.85
2023-03-02T05:31:53.336Z,33.08
2023-03-02T05:34:22.746Z,31.17
2023-03-02T05:36:51.477Z,31.35
2023-03-02T05:39:19.585Z,32.55
2023-03-02T05:41:48.610Z,32.67
2023-03-02T05:44:16.590Z,32.03
2023-03-02T05:46:44.332Z,33.35
2023-03-02T05:49:11.792Z,32.30
2023-03-02T05:51:39.464Z,30.73
2023-03-02T05:54:07.360Z,30.92
2023-03-02T05:56:35.264Z,34.72
2023-03-02T05:59:03.165Z,31.42
2023-03-02T06:01:30.964Z,33.40
2023-03-02T06:03:59.567Z,30.23
2023-03-02T06:06:27.208Z,32.13
2023-03-02T06:08:54.905Z,31.23
2023-03-02T06:11:23.184Z,31.08
2023-03-02T06:13:51.881Z,28.55
2023-03-02T06:16:19.730Z,30.60
2023-03-02T06:18:48.144Z,31.55
2023-03-02T06:21:16.067Z,29.63
2023-03-02T06:23:44.728Z,27.92
2023-03-02T06:26:13.431Z,30.90
2023-03-02T06:28:56.612Z,30.77
2023-03-02T06:31:24.618Z,30.20
2023-03-02T06:33:52.782Z,29.40
2023-03-02T06:36:25.107Z,29.80
2023-03-02T06:38:59.708Z,30.45
2023-03-02T06:41:27.588Z,30.00
2023-03-02T06:43:55.943Z,28.77
2023-03-02T06:46:23.673Z,28.73
2023-03-02T06:48:52.663Z,28.55
2023-03-02T06:51:21.378Z,30.20
2023-03-02T06:53:49.105Z,29.27
2023-03-02T06:56:16.819Z,28.38
2023-03-02T06:58:45.626Z,28.52
2023-03-02T07:01:13.332Z,29.33
2023-03-02T07:03:41.520Z,28.02
2023-03-02T07:06:09.238Z,28.48
2023-03-02T07:08:38.062Z,29.65
2023-03-02T07:11:06.889Z,30.52
2023-03-02T07:13:34.511Z,30.48
2023-03-02T07:16:06.196Z,29.33
2023-03-02T07:18:35.230Z,29.45
2023-03-02T07:21:03.039Z,28.67
2023-03-02T07:23:30.790Z,29.42
2023-03-02T07:25:58.776Z,30.08
2023-03-02T07:28:26.489Z,29.30
2023-03-02T07:30:54.593Z,28.90
2023-03-02T07:33:23.474Z,30.35
2023-03-02T07:35:52.347Z,30.52
2023-03-02T07:38:21.444Z,28.60
2023-03-02T07:40:49.716Z,29.40
2023-03-02T07:43:17.187Z,28.65
2023-03-02T07:45:45.242Z,28.98
2023-03-02T07:48:13.009Z,28.08
2023-03-02T07:50:40.806Z,27.60
2023-03-02T07:53:08.540Z,28.42
2023-03-02T07:55:35.993Z,28.15
2023-03-02T07:58:04.508Z,28.48
2023-03-02T08:00:32.173Z,28.08
2023-03-02T08:02:59.815Z,26.38
2023-03-02T08:05:27.387Z,25.55
2023-03-02T08:07:55.354Z,25.77
2023-03-02T08:10:24.235Z,25.65
2023-03-02T08:12:53.775Z,27.15
2023-03-02T08:15:24.042Z,26.10
2023-03-02T08:17:53.139Z,25.65
2023-03-02T08:20:21.323Z,25.00
2023-03-02T08:22:48.974Z,26.45
2023-03-02T08:25:16.463Z,24.67
2023-03-02T08:27:46.356Z,25.17
2023-03-02T08:30:14.459Z,24.90
2023-03-02T08:32:42.457Z,23.90
2023-03-02T08:35:10.117Z,24.17
2023-03-02T08:37:37.722Z,24.60
2023-03-02T08:40:05.622Z,24.10
2023-03-02T08:42:33.380Z,24.67
2023-03-02T08:45:00.938Z,24.75
2023-03-02T08:47:28.633Z,23.35
2023-03-02T08:49:58.614Z,23.77
2023-03-02T08:52:26.472Z,23.52
2023-03-02T08:54:54.950Z,24.48
2023-03-02T08:57:25.316Z,22.55
2023-03-02T08:59:53.557Z,24.17
2023-03-02T09:02:21.621Z,23.13
2023-03-02T09:04:49.738Z,21.73
2023-03-02T09:07:17.702Z,21.23
2023-03-02T09:09:45.556Z,21.83
2023-03-02T09:12:13.510Z,22.70
2023-03-02T09:14:41.618Z,22.05
2023-03-02T09:17:09.604Z,22.42
2023-03-02T09:19:44.340Z,21.88
2023-03-02T09:22:12.914Z,21.80
2023-03-02T09:24:40.668Z,21.50
2023-03-02T09:27:12.636Z,22.08
2023-03-02T09:29:43.558Z,20.23
2023-03-02T09:32:12.165Z,20.52
2023-03-02T09:34:39.817Z,19.42
2023-03-02T09:37:07.912Z,18.90
2023-03-02T09:39:35.541Z,18.75
2023-03-02T09:42:09.522Z,20.42
2023-03-02T09:45:09.833Z,18.88
2023-03-02T09:47:55.400Z,19.90
2023-03-02T09:50:40.514Z,19.95
2023-03-02T09:53:09.137Z,18.70
2023-03-02T09:55:37.485Z,17.67
2023-03-02T09:58:14.214Z,18.52
2023-03-02T10:00:44.073Z,18.40
2023-03-02T10:03:17.966Z,17.25
2023-03-02T10:05:49.560Z,17.58
2023-03-02T10:08:22.846Z,17.98
2023-03-02T10:11:10.124Z,18.00
2023-03-02T10:13:56.838Z,17.90
2023-03-02T10:16:32.254Z,17.08
2023-03-02T10:19:00.408Z,15.40
2023-03-02T10:21:30.398Z,16.92
2023-03-02T10:23:58.169Z,17.90
2023-03-02T10:26:42.334Z,17.85
2023-03-02T10:29:23.456Z,17.65
2023-03-02T10:31:55.838Z,16.83
2023-03-02T10:34:26.635Z,16.73
2023-03-02T10:36:54.230Z,15.98
2023-03-02T10:39:25.560Z,16.73
2023-03-02T10:42:01.626Z,16.25
2023-03-02T10:44:31.397Z,15.68
2023-03-02T10:46:59.467Z,16.75
2023-03-02T10:49:35.269Z,16.80
2023-03-02T10:52:07.014Z,15.40
2023-03-02T10:54:37.214Z,16.25
2023-03-02T10:57:06.421Z,15.18
2023-03-02T10:59:43.836Z,16.10
2023-03-02T11:02:16.320Z,15.48
2023-03-02T11:04:44.297Z,16.90
2023-03-02T11:07:17.759Z,15.55
2023-03-02T11:10:06.309Z,14.63
2023-03-02T11:12:36.553Z,14.25
2023-03-02T11:15:17.191Z,13.70
2023-03-02T11:20:25.497Z,13.35
2023-03-02T11:22:54.001Z,13.95
2023-03-02T11:25:28.040Z,12.43
2023-03-02T11:27:59.972Z,13.88
2023-03-02T11:30:29.810Z,13.70
2023-03-02T11:33:08.410Z,13.95
2023-03-02T11:36:09.776Z,12.32
2023-03-02T11:38:52.619Z,12.25
2023-03-02T11:41:27.552Z,11.90
2023-03-02T11:43:55.535Z,12.48
2023-03-02T11:46:26.500Z,12.60
2023-03-02T11:48:56.451Z,12.25
2023-03-02T11:51:28.720Z,11.25
2023-03-02T11:54:05.205Z,10.77
2023-03-02T11:56:34.483Z,10.60
2023-03-02T11:59:09.184Z,10.75
2023-03-02T12:01:42.373Z,11.25
2023-03-02T12:04:12.538Z,11.73
2023-03-02T12:06:41.102Z,12.00
2023-03-02T12:09:26.143Z,10.27
2023-03-02T12:12:17.127Z,11.15
2023-03-02T12:14:44.815Z,10.15
2023-03-02T12:17:30.699Z,10.25
2023-03-02T12:20:08.117Z,10.15
2023-03-02T12:22:36.624Z,10.93
2023-03-02T12:25:26.616Z,10.27
2023-03-02T12:27:55.788Z,9.65
2023-03-02T12:30:26.249Z,10.57
2023-03-02T12:33:00.206Z,11.27
2023-03-02T12:35:29.991Z,10.27
2023-03-02T12:38:02.738Z,11.52
2023-03-02T12:40:30.521Z,10.77
2023-03-02T12:43:24.726Z,10.30
2023-03-02T12:46:11.834Z,10.18
2023-03-02T12:48:54.330Z,10.52
2023-03-02T12:51:23.639Z,10.25
2023-03-02T12:53:52.503Z,11.07
2023-03-02T12:56:26.638Z,10.85
2023-03-02T12:58:55.101Z,10.30
2023-03-02T13:01:28.252Z,10.82
2023-03-02T13:03:56.293Z,9.30
2023-03-02T13:06:25.198Z,9.32
2023-03-02T13:08:57.794Z,9.57
2023-03-02T13:11:31.387Z,9.75
2023-03-02T13:13:59.945Z,8.80
2023-03-02T13:16:32.872Z,8.75
2023-03-02T13:19:07.141Z,8.90
2023-03-02T13:21:38.336Z,8.50
2023-03-02T13:24:25.985Z,9.52
2023-03-02T13:27:00.713Z,10.23
2023-03-02T13:29:29.334Z,9.30
2023-03-02T13:31:57.087Z,9.20
2023-03-02T13:34:29.470Z,9.60
2023-03-02T13:36:57.321Z,9.70
2023-03-02T13:39:30.568Z,9.90
2023-03-02T13:42:00.861Z,9.27
2023-03-02T13:44:33.031Z,9.18
2023-03-02T13:47:01.028Z,9.30
2023-03-02T13:49:30.915Z,9.88
2023-03-02T13:52:02.791Z,10.25
2023-03-02T13:54:32.197Z,10.95
2023-03-02T13:57:00.930Z,11.32
2023-03-02T13:59:28.728Z,11.13
2023-03-02T14:01:56.669Z,10.88
2023-03-02T14:04:24.574Z,11.00
2023-03-02T14:06:53.411Z,12.45
2023-03-02T14:09:23.398Z,12.82
2023-03-02T14:11:57.168Z,12.75
2023-03-02T14:14:25.719Z,12.02
2023-03-02T14:16:53.678Z,12.52
2023-03-02T14:19:25.319Z,12.35
2023-03-02T14:21:53.622Z,12.25
2023-03-02T14:24:22.664Z,11.80
2023-03-02T14:26:53.497Z,11.98
2023-03-02T14:29:26.471Z,11.55
2023-03-02T14:32:00.420Z,11.57
2023-03-02T14:34:28.252Z,11.07
2023-03-02T14:36:57.554Z,11.65
2023-03-02T14:39:25.513Z,11.73
2023-03-02T14:41:54.720Z,11.77
2023-03-02T14:44:23.631Z,11.43
2023-03-02T14:46:53.259Z,10.60
2023-03-02T14:49:24.814Z,11.47
2023-03-02T14:52:12.182Z,10.27
2023-03-02T14:54:52.448Z,10.85
2023-03-02T14:57:30.788Z,11.57
2023-03-02T15:00:00.090Z,10.70
2023-03-02T15:02:28.146Z,10.00
2023-03-02T15:04:57.755Z,9.68
2023-03-02T15:07:27.031Z,9.80
2023-03-02T15:09:55.629Z,10.25
2023-03-02T15:12:24.130Z,10.63
2023-03-02T15:14:52.481Z,10.65
2023-03-02T15:17:21.873Z,10.73
2023-03-02T15:19:49.887Z,10.93
2023-03-02T15:22:19.617Z,12.05
2023-03-02T15:24:48.153Z,10.60
2023-03-02T15:27:16.580Z,12.02
2023-03-02T15:29:48.338Z,12.77
2023-03-02T15:32:16.490Z,11.27
2023-03-02T15:34:44.595Z,12.02
2023-03-02T15:37:13.015Z,11.68
2023-03-02T15:39:41.031Z,11.27
2023-03-02T15:42:08.938Z,11.27
2023-03-02T15:44:36.619Z,11.45
2023-03-02T15:47:04.806Z,11.18
2023-03-02T15:49:33.070Z,11.40
2023-03-02T15:52:01.390Z,11.35
2023-03-02T15:54:29.398Z,11.30
2023-03-02T15:56:57.327Z,11.63
2023-03-02T15:59:25.992Z,12.43
2023-03-02T16:01:54.337Z,11.25
2023-03-02T16:04:23.800Z,11.43
2023-03-02T16:06:55.090Z,10.82
2023-03-02T16:09:23.808Z,11.88
2023-03-02T16:11:53.209Z,11.73
2023-03-02T16:14:22.805Z,11.37
2023-03-02T16:16:54.389Z,11.37
2023-03-02T16:19:23.448Z,11.23
2023-03-02T16:21:53.351Z,11.57
2023-03-02T16:24:24.425Z,11.25
2023-03-02T16:26:53.889Z,11.88
2023-03-02T16:29:24.453Z,12.37
2023-03-02T16:36:50.077Z,12.13
2023-03-02T16:39:19.197Z,11.98
2023-03-02T16:41:47.263Z,12.30
2023-03-02T16:44:16.167Z,12.55
2023-03-02T16:46:44.196Z,12.45
2023-03-02T16:49:12.580Z,12.57
2023-03-02T16:51:40.048Z,12.60
2023-03-02T16:54:07.873Z,12.40
2023-03-02T16:56:35.551Z,12.00
2023-03-02T16:59:03.776Z,11.27
2023-03-02T17:01:31.515Z,12.60
2023-03-02T17:03:59.244Z,11.35
2023-03-02T17:06:26.869Z,12.00
2023-03-02T17:08:54.385Z,11.15
2023-03-02T17:11:23.221Z,11.88
2023-03-02T17:13:51.364Z,11.98
2023-03-02T17:16:19.967Z,11.13
2023-03-02T17:18:53.854Z,12.02
2023-03-02T17:21:22.887Z,11.82
2023-03-02T17:23:51.132Z,11.77
2023-03-02T17:26:19.103Z,13.35
2023-03-02T17:28:46.972Z,12.93
2023-03-02T17:31:14.583Z,12.70
2023-03-02T17:33:42.180Z,12.48
2023-03-02T17:36:12.188Z,12.23
2023-03-02T17:38:40.392Z,12.23
2023-03-02T17:41:11.258Z,13.13
2023-03-02T17:43:41.275Z,12.82
2023-03-02T17:46:10.460Z,12.88
2023-03-02T17:48:38.164Z,14.48
2023-03-02T17:51:06.165Z,15.30
2023-03-02T17:53:34.175Z,15.18
2023-03-02T17:56:02.093Z,15.43
2023-03-02T17:58:42.822Z,14.88
2023-03-02T18:01:13.369Z,14.98
2023-03-02T18:06:48.195Z,15.88
2023-03-02T18:09:15.742Z,16.00
2023-03-02T18:11:45.287Z,15.95
2023-03-02T18:14:17.575Z,16.85
2023-03-02T18:16:46.474Z,15.85
2023-03-02T18:19:15.020Z,16.23
2023-03-02T18:21:42.732Z,16.42
2023-03-02T18:24:10.701Z,16.40
2023-03-02T18:26:39.326Z,17.30
2023-03-02T18:29:07.440Z,17.45
2023-03-02T18:31:35.164Z,17.08
2023-03-02T18:34:03.878Z,17.85
2023-03-02T18:36:31.588Z,17.60
2023-03-02T18:38:59.083Z,18.55
2023-03-02T18:41:30.273Z,19.13
2023-03-02T18:44:01.660Z,18.30
2023-03-02T18:46:30.595Z,16.75
2023-03-02T18:49:00.577Z,17.45
2023-03-02T18:51:28.820Z,17.55
2023-03-02T18:53:57.299Z,18.48
2023-03-02T18:56:25.456Z,17.40
2023-03-02T18:58:53.673Z,19.85
2023-03-02T19:01:22.589Z,19.52
2023-03-02T19:03:51.687Z,18.50
2023-03-02T19:06:23.079Z,19.40
2023-03-02T19:08:52.708Z,19.63
2023-03-02T19:11:23.316Z,18.57
2023-03-02T19:16:23.467Z,18.40
2023-03-02T19:18:51.452Z,17.70
2023-03-02T19:21:25.131Z,17.55
2023-03-02T19:23:53.943Z,18.90
2023-03-02T19:26:27.715Z,17.88
2023-03-02T19:28:58.540Z,17.83
2023-03-02T19:31:31.419Z,18.50
2023-03-02T19:33:59.256Z,18.20
2023-03-02T19:36:27.151Z,16.50
2023-03-02T19:38:54.836Z,18.10
2023-03-02T19:41:23.490Z,17.40
2023-03-02T19:44:00.881Z,18.30
2023-03-02T19:46:31.776Z,18.70
2023-03-02T19:48:59.382Z,18.70
2023-03-02T19:51:26.961Z,19.15
2023-03-02T19:53:55.019Z,18.83
2023-03-02T19:56:30.370Z,19.58
2023-03-02T19:59:00.504Z,19.92
2023-03-02T20:01:30.243Z,20.40
2023-03-02T20:03:58.373Z,19.65
2023-03-02T20:06:27.162Z,21.33
2023-03-02T20:08:55.450Z,20.90
2023-03-02T20:11:25.358Z,19.77
2023-03-02T20:13:53.705Z,20.75
2023-03-02T20:16:23.055Z,21.55
2023-03-02T20:18:55.061Z,22.35
2023-03-02T20:21:25.963Z,22.13
2023-03-02T20:23:54.554Z,21.38
2023-03-02T20:26:24.671Z,22.17
2023-03-02T20:28:53.996Z,22.48
2023-03-02T20:31:24.147Z,21.25
2023-03-02T20:33:53.769Z,22.63
2023-03-02T20:36:25.174Z,21.75
2023-03-02T20:38:55.948Z,22.73
2023-03-02T20:41:24.037Z,22.52
2023-03-02T20:43:52.885Z,21.55
2023-03-02T20:46:23.656Z,23.70
2023-03-02T20:48:54.731Z,23.55
2023-03-02T20:51:23.614Z,23.00
2023-03-02T20:53:51.438Z,22.50
2023-03-02T20:56:25.780Z,23.35
2023-03-02T20:58:53.774Z,24.15
2023-03-02T21:01:25.586Z,24.55
2023-03-02T21:03:53.615Z,23.58
2023-03-02T21:06:22.313Z,22.48
2023-03-02T21:08:50.093Z,23.67
2023-03-02T21:11:23.682Z,24.13
2023-03-02T21:13:53.089Z,23.55
2023-03-02T21:16:24.122Z,25.33
2023-03-02T21:18:52.576Z,24.25
2023-03-02T21:21:29.695Z,23.63
2023-03-02T21:24:03.694Z,24.98
2023-03-02T21:26:31.488Z,24.98
2023-03-02T21:28:59.463Z,25.05
2023-03-02T21:31:27.774Z,25.20
2023-03-02T21:33:55.994Z,25.90
2023-03-02T21:36:25.088Z,24.73
2023-03-02T21:38:53.930Z,24.90
2023-03-02T21:41:24.171Z,23.75
2023-03-02T21:43:55.025Z,25.67
2023-03-02T21:46:27.234Z,24.98
2023-03-02T21:48:54.955Z,25.20
2023-03-02T21:51:29.010Z,26.55
2023-03-02T21:53:56.468Z,24.75
2023-03-02T21:56:24.815Z,26.75
2023-03-02T21:58:56.557Z,25.02
2023-03-02T22:01:25.114Z,25.20
2023-03-02T22:03:56.064Z,25.63
2023-03-02T22:06:25.977Z,24.52
2023-03-02T22:08:53.790Z,23.80
2023-03-02T22:11:23.112Z,25.90
2023-03-02T22:13:52.126Z,25.05
2023-03-02T22:16:25.889Z,27.25
2023-03-02T22:19:00.579Z,25.38
2023-03-02T22:21:31.397Z,25.05
2023-03-02T22:24:03.988Z,25.63
2023-03-02T22:26:33.304Z,25.30
2023-03-02T22:31:29.610Z,23.30
2023-03-02T22:33:59.052Z,24.30
2023-03-02T22:36:26.949Z,25.85
2023-03-02T22:38:55.993Z,25.95
2023-03-02T22:41:24.454Z,24.92
2023-03-02T22:43:53.008Z,26.35
2023-03-02T22:46:22.749Z,25.15
2023-03-02T22:48:52.497Z,25.42
2023-03-02T22:51:28.865Z,26.52
2023-03-02T22:53:58.131Z,26.48
2023-03-02T22:56:35.313Z,26.55
2023-03-02T22:59:18.276Z,26.98
2023-03-02T23:01:46.108Z,27.05
2023-03-02T23:04:17.956Z,25.52
2023-03-02T23:06:47.575Z,25.00
2023-03-02T23:09:21.349Z,26.73
2023-03-02T23:11:49.502Z,26.95
2023-03-02T23:14:17.282Z,26.88
2023-03-02T23:16:44.975Z,26.80
2023-03-02T23:19:13.928Z,26.85
2023-03-02T23:21:45.756Z,26.50
2023-03-02T23:24:13.474Z,25.42
2023-03-02T23:26:41.511Z,24.83
2023-03-02T23:29:09.026Z,25.20
2023-03-02T23:31:37.476Z,25.08
2023-03-02T23:34:05.501Z,25.55
2023-03-02T23:36:33.404Z,24.75
2023-03-02T23:39:01.510Z,25.55
2023-03-02T23:41:29.776Z,24.83
2023-03-02T23:43:57.354Z,25.35
2023-03-02T23:46:25.936Z,24.17
2023-03-02T23:48:56.200Z,25.05
2023-03-02T23:51:29.396Z,27.30
2023-03-02T23:53:57.037Z,25.10
2023-03-02T23:56:25.393Z,24.20
2023-03-02T23:58:53.607Z,25.00
